Time;durP1;ratioP1;P1;durP2;ratioP2;P2;SDS_P1;SDS_P2;PMS_P1;PMS_P2;Temp;Humidity;BMP_temperature;BMP_pressure;BME280_temperature;BME280_humidity;BME280_pressure;Samples;Min_cycle;Max_cycle;Signal;HPM_P1;HPM_P2
2021/03/05 00:00:07;;;;;;;85.47;40.05;;;;;;;;;;5116737;28;20092;-84
2021/03/05 00:02:33;;;;;;;73.20;37.40;;;;;;;;;;5118111;28;20027;-83
2021/03/05 00:04:59;;;;;;;69.63;35.28;;;;;;;;;;5118022;28;20024;-84
2021/03/05 00:07:25;;;;;;;68.72;34.10;;;;;;;;;;5117838;28;20027;-84
2021/03/05 00:10:10;;;;;;;83.47;38.38;;;;;;;;;;5117817;28;20066;-83
2021/03/05 00:12:37;;;;;;;72.95;37.40;;;;;;;;;;5116694;28;20448;-83
2021/03/05 00:15:04;;;;;;;73.30;35.80;;;;;;;;;;5118007;28;20044;-83
2021/03/05 00:17:30;;;;;;;77.35;35.95;;;;;;;;;;5117689;28;20039;-83
2021/03/05 00:19:56;;;;;;;65.38;33.67;;;;;;;;;;5117920;28;20015;-84
2021/03/05 00:22:22;;;;;;;67.85;34.75;;;;;;;;;;5117611;28;20031;-84
2021/03/05 00:24:48;;;;;;;71.32;35.80;;;;;;;;;;5117474;28;20080;-83
2021/03/05 00:27:14;;;;;;;70.15;36.30;;;;;;;;;;5117888;28;20099;-84
2021/03/05 00:29:40;;;;;;;70.50;37.47;;;;;;;;;;5117396;28;20032;-84
2021/03/05 00:32:07;;;;;;;63.58;34.67;;;;;;;;;;5117399;28;20032;-83
2021/03/05 00:34:33;;;;;;;68.70;33.70;;;;;;;;;;5116210;28;20081;-83
2021/03/05 00:37:00;;;;;;;73.45;36.97;;;;;;;;;;5117623;28;20061;-84
2021/03/05 00:39:26;;;;;;;72.45;35.92;;;;;;;;;;5117923;28;20024;-84
2021/03/05 00:41:52;;;;;;;69.15;36.03;;;;;;;;;;5121842;28;20114;-84
2021/03/05 00:44:18;;;;;;;61.30;34.13;;;;;;;;;;5121435;28;20023;-83
2021/03/05 00:46:44;;;;;;;63.70;34.67;;;;;;;;;;5121622;28;20392;-82
2021/03/05 00:49:10;;;;;;;70.20;36.10;;;;;;;;;;5121243;28;20016;-82
2021/03/05 00:51:36;;;;;;;75.65;38.35;;;;;;;;;;5121211;28;20031;-82
2021/03/05 00:54:02;;;;;;;84.28;42.22;;;;;;;;;;5121139;28;20019;-82
2021/03/05 00:56:28;;;;;;;76.55;39.67;;;;;;;;;;5120971;28;20405;-82
2021/03/05 00:58:54;;;;;;;73.55;37.58;;;;;;;;;;5120757;28;20067;-82
2021/03/05 01:01:20;;;;;;;78.00;37.13;;;;;;;;;;5121030;28;20038;-82
2021/03/05 01:03:46;;;;;;;80.72;40.08;;;;;;;;;;5120935;28;20035;-81
2021/03/05 01:06:12;;;;;;;80.78;42.08;;;;;;;;;;5121112;28;20023;-82
2021/03/05 01:08:38;;;;;;;79.68;40.67;;;;;;;;;;5120968;28;20019;-82
2021/03/05 01:11:04;;;;;;;67.20;35.85;;;;;;;;;;5120929;28;20020;-82
2021/03/05 01:13:30;;;;;;;58.28;31.58;;;;;;;;;;5121006;28;20322;-82
2021/03/05 01:15:57;;;;;;;56.20;29.90;;;;;;;;;;5120857;28;20103;-82
2021/03/05 01:18:23;;;;;;;53.08;29.35;;;;;;;;;;5120894;28;20027;-83
2021/03/05 01:20:49;;;;;;;52.72;28.33;;;;;;;;;;5120311;28;20473;-83
2021/03/05 01:23:16;;;;;;;54.33;28.02;;;;;;;;;;5120690;28;20023;-83
2021/03/05 01:25:42;;;;;;;49.40;26.35;;;;;;;;;;5120783;28;20061;-83
2021/03/05 01:28:09;;;;;;;44.17;23.75;;;;;;;;;;5120689;28;20026;-83
2021/03/05 01:30:35;;;;;;;42.50;22.45;;;;;;;;;;5120469;28;20047;-83
2021/03/05 01:33:01;;;;;;;39.30;21.88;;;;;;;;;;5119441;28;20409;-83
2021/03/05 01:35:28;;;;;;;43.55;24.23;;;;;;;;;;5120586;28;20027;-83
2021/03/05 01:37:54;;;;;;;50.80;26.63;;;;;;;;;;5120545;28;20035;-83
2021/03/05 01:40:51;;;;;;;54.33;27.58;;;;;;;;;;5119653;28;20027;-84
2021/03/05 01:43:18;;;;;;;56.78;27.85;;;;;;;;;;5120515;28;20024;-84
2021/03/05 01:45:45;;;;;;;49.38;26.08;;;;;;;;;;5120549;28;20027;-84
2021/03/05 01:48:12;;;;;;;55.85;27.33;;;;;;;;;;5120478;28;20023;-84
2021/03/05 01:50:51;;;;;;;51.65;26.55;;;;;;;;;;5120135;28;20030;-84
2021/03/05 01:53:17;;;;;;;50.92;25.77;;;;;;;;;;5119906;28;20347;-84
2021/03/05 01:55:43;;;;;;;49.60;26.08;;;;;;;;;;5117983;27;20024;-85
2021/03/05 01:58:09;;;;;;;50.70;26.58;;;;;;;;;;5120460;28;20034;-84
2021/03/05 02:00:41;;;;;;;46.65;24.38;;;;;;;;;;5119934;28;20442;-84
2021/03/05 02:03:07;;;;;;;43.92;24.27;;;;;;;;;;5119958;28;20063;-82
2021/03/05 02:05:34;;;;;;;42.85;22.25;;;;;;;;;;5119921;28;20440;-83
2021/03/05 02:08:00;;;;;;;41.40;21.48;;;;;;;;;;5118972;28;20290;-84
2021/03/05 02:10:26;;;;;;;37.40;19.50;;;;;;;;;;5118635;28;20063;-84
2021/03/05 02:12:52;;;;;;;39.08;20.48;;;;;;;;;;5119828;28;20034;-84
2021/03/05 02:15:18;;;;;;;37.42;19.73;;;;;;;;;;5119767;28;20107;-84
2021/03/05 02:18:03;;;;;;;38.05;19.42;;;;;;;;;;5119795;28;20028;-84
2021/03/05 02:20:38;;;;;;;39.72;20.35;;;;;;;;;;5119848;28;20030;-84
2021/03/05 02:23:10;;;;;;;33.75;19.80;;;;;;;;;;5119689;28;20028;-84
2021/03/05 02:25:46;;;;;;;36.40;19.70;;;;;;;;;;5119870;28;20070;-83
2021/03/05 02:28:31;;;;;;;36.13;20.15;;;;;;;;;;5118416;28;20470;-83
2021/03/05 02:31:13;;;;;;;39.60;21.33;;;;;;;;;;5119257;28;20035;-84
2021/03/05 02:33:48;;;;;;;36.70;20.45;;;;;;;;;;5119508;28;20019;-83
2021/03/05 02:36:17;;;;;;;41.97;21.02;;;;;;;;;;5119500;28;20031;-83
2021/03/05 02:38:47;;;;;;;36.63;20.60;;;;;;;;;;5119435;28;20031;-83
2021/03/05 02:41:14;;;;;;;34.50;19.65;;;;;;;;;;5119181;28;20020;-83
2021/03/05 02:43:42;;;;;;;35.00;18.75;;;;;;;;;;5119354;28;20397;-83
2021/03/05 02:46:08;;;;;;;34.22;19.10;;;;;;;;;;5119012;28;20406;-83
2021/03/05 02:48:40;;;;;;;55.35;20.35;;;;;;;;;;5118855;28;20042;-84
2021/03/05 02:51:06;;;;;;;43.33;21.67;;;;;;;;;;5119038;28;20410;-84
2021/03/05 02:53:34;;;;;;;37.00;21.08;;;;;;;;;;5119009;28;20023;-84
2021/03/05 02:56:04;;;;;;;37.53;18.88;;;;;;;;;;5118686;28;20026;-84
2021/03/05 02:58:31;;;;;;;34.65;19.48;;;;;;;;;;5118896;28;20099;-84
2021/03/05 03:00:58;;;;;;;35.20;19.85;;;;;;;;;;5119057;28;20127;-84
2021/03/05 03:03:24;;;;;;;34.30;19.08;;;;;;;;;;5118786;28;20027;-84
2021/03/05 03:05:54;;;;;;;39.85;19.63;;;;;;;;;;5119133;28;20020;-84
2021/03/05 03:08:21;;;;;;;34.85;19.23;;;;;;;;;;5119012;28;20023;-84
2021/03/05 03:10:48;;;;;;;31.58;18.40;;;;;;;;;;5118885;28;20023;-85
2021/03/05 03:13:14;;;;;;;39.80;18.10;;;;;;;;;;5118964;28;20024;-85
2021/03/05 03:15:41;;;;;;;35.10;18.35;;;;;;;;;;5118763;28;20024;-84
2021/03/05 03:18:10;;;;;;;33.08;19.30;;;;;;;;;;5118505;28;20405;-84
2021/03/05 03:20:37;;;;;;;30.48;18.55;;;;;;;;;;5118542;28;20116;-84
2021/03/05 03:23:04;;;;;;;29.02;18.55;;;;;;;;;;5118579;28;20027;-84
2021/03/05 03:25:48;;;;;;;35.85;19.20;;;;;;;;;;5117539;28;20413;-84
2021/03/05 03:28:14;;;;;;;46.83;22.08;;;;;;;;;;5118580;28;20023;-84
2021/03/05 03:30:40;;;;;;;51.80;23.58;;;;;;;;;;5118375;28;20035;-84
2021/03/05 03:33:07;;;;;;;59.15;26.33;;;;;;;;;;5118273;28;20028;-83
2021/03/05 03:35:33;;;;;;;53.78;25.63;;;;;;;;;;5118496;28;20072;-84
2021/03/05 03:37:59;;;;;;;47.83;24.33;;;;;;;;;;5118712;28;20344;-84
2021/03/05 03:40:26;;;;;;;39.45;21.80;;;;;;;;;;5118120;28;20041;-84
2021/03/05 03:42:52;;;;;;;37.55;21.05;;;;;;;;;;5118255;28;20027;-84
2021/03/05 03:45:21;;;;;;;33.30;19.35;;;;;;;;;;5118290;28;20031;-84
2021/03/05 03:47:47;;;;;;;30.05;16.98;;;;;;;;;;5118502;28;20102;-85
2021/03/05 03:50:27;;;;;;;32.13;18.17;;;;;;;;;;5118203;28;20412;-84
2021/03/05 03:52:55;;;;;;;32.03;17.95;;;;;;;;;;5118129;28;20032;-84
2021/03/05 03:55:21;;;;;;;31.35;17.90;;;;;;;;;;5118145;28;20159;-83
2021/03/05 03:57:49;;;;;;;30.45;17.15;;;;;;;;;;5117884;28;20055;-83
2021/03/05 04:00:16;;;;;;;29.67;16.20;;;;;;;;;;5117426;28;20433;-83
2021/03/05 04:02:44;;;;;;;31.80;17.23;;;;;;;;;;5117712;28;20036;-83
2021/03/05 04:05:12;;;;;;;29.10;17.38;;;;;;;;;;5116592;28;20119;-83
2021/03/05 04:07:39;;;;;;;34.03;17.63;;;;;;;;;;5116723;28;20024;-83
2021/03/05 04:10:06;;;;;;;30.67;17.42;;;;;;;;;;5118030;28;20027;-83
2021/03/05 04:12:32;;;;;;;31.52;16.85;;;;;;;;;;5117582;28;20026;-83
2021/03/05 04:14:59;;;;;;;30.50;17.13;;;;;;;;;;5117078;28;20022;-83
2021/03/05 04:17:26;;;;;;;36.33;18.30;;;;;;;;;;5117525;28;20047;-83
2021/03/05 04:19:53;;;;;;;38.63;20.38;;;;;;;;;;5116517;28;20086;-83
2021/03/05 04:22:19;;;;;;;38.85;20.63;;;;;;;;;;5117472;28;20020;-83
2021/03/05 04:24:45;;;;;;;39.83;20.95;;;;;;;;;;5117788;28;20032;-84
2021/03/05 04:27:30;;;;;;;38.80;21.35;;;;;;;;;;5117588;28;20030;-84
2021/03/05 04:29:56;;;;;;;34.53;19.48;;;;;;;;;;5117524;28;20023;-84
2021/03/05 04:32:22;;;;;;;30.80;18.02;;;;;;;;;;5116410;28;20119;-84
2021/03/05 04:34:48;;;;;;;32.85;17.67;;;;;;;;;;5117797;28;20015;-84
2021/03/05 04:37:14;;;;;;;29.05;17.35;;;;;;;;;;5117755;28;20031;-84
2021/03/05 04:39:40;;;;;;;31.60;17.45;;;;;;;;;;5117559;28;20087;-84
2021/03/05 04:42:06;;;;;;;32.90;17.25;;;;;;;;;;5117479;28;20024;-84
2021/03/05 04:44:32;;;;;;;28.63;16.88;;;;;;;;;;5117881;28;20088;-84
2021/03/05 04:46:59;;;;;;;29.92;16.83;;;;;;;;;;5117179;28;20073;-83
2021/03/05 04:49:25;;;;;;;31.75;16.85;;;;;;;;;;5117736;28;20050;-84
2021/03/05 04:51:51;;;;;;;28.00;16.42;;;;;;;;;;5116095;28;20321;-84
2021/03/05 04:54:17;;;;;;;32.70;17.27;;;;;;;;;;5117591;28;20125;-84
2021/03/05 04:56:43;;;;;;;30.27;16.60;;;;;;;;;;5117524;28;20023;-82
2021/03/05 04:59:10;;;;;;;29.40;16.20;;;;;;;;;;5117304;28;20051;-83
2021/03/05 05:01:36;;;;;;;29.50;16.30;;;;;;;;;;5116974;28;20028;-83
2021/03/05 05:04:02;;;;;;;28.15;16.65;;;;;;;;;;5117162;28;20019;-82
2021/03/05 05:06:28;;;;;;;29.95;16.67;;;;;;;;;;5116085;28;20020;-83
2021/03/05 05:08:54;;;;;;;30.17;16.58;;;;;;;;;;5117085;28;20582;-83
2021/03/05 05:11:20;;;;;;;31.02;16.55;;;;;;;;;;5115872;28;20071;-83
2021/03/05 05:13:46;;;;;;;30.02;16.50;;;;;;;;;;5117053;28;20016;-83
2021/03/05 05:16:12;;;;;;;31.52;16.92;;;;;;;;;;5117203;28;20015;-83
2021/03/05 05:18:38;;;;;;;31.30;17.98;;;;;;;;;;5117151;28;20443;-83
2021/03/05 05:21:04;;;;;;;28.90;16.73;;;;;;;;;;5117003;28;20028;-83
2021/03/05 05:23:31;;;;;;;30.58;16.85;;;;;;;;;;5117001;28;20023;-83
2021/03/05 05:25:57;;;;;;;27.42;16.38;;;;;;;;;;5117095;28;20016;-83
2021/03/05 05:28:23;;;;;;;29.95;16.13;;;;;;;;;;5120195;28;20022;-82
2021/03/05 05:30:49;;;;;;;29.80;15.90;;;;;;;;;;5120562;28;20055;-83
2021/03/05 05:33:16;;;;;;;33.08;16.80;;;;;;;;;;5119445;28;20023;-83
2021/03/05 05:35:42;;;;;;;29.92;16.25;;;;;;;;;;5120863;28;20024;-82
2021/03/05 05:38:09;;;;;;;30.40;15.88;;;;;;;;;;5120339;28;20016;-83
2021/03/05 05:40:39;;;;;;;33.78;16.77;;;;;;;;;;5119384;28;20059;-82
2021/03/05 05:43:06;;;;;;;34.60;17.83;;;;;;;;;;5120141;28;20313;-82
2021/03/05 05:45:32;;;;;;;40.33;19.02;;;;;;;;;;5119002;28;20065;-83
2021/03/05 05:48:00;;;;;;;41.63;22.90;;;;;;;;;;5120328;28;20031;-84
2021/03/05 05:50:27;;;;;;;47.60;27.38;;;;;;;;;;5120431;28;20024;-82
2021/03/05 05:52:54;;;;;;;51.33;26.52;;;;;;;;;;5120207;28;20027;-82
2021/03/05 05:55:21;;;;;;;41.90;22.35;;;;;;;;;;5120172;28;20018;-82
2021/03/05 05:57:47;;;;;;;35.03;19.98;;;;;;;;;;5118840;28;20024;-82
2021/03/05 06:00:14;;;;;;;36.17;18.67;;;;;;;;;;5119700;28;20040;-83
2021/03/05 06:02:44;;;;;;;33.60;19.70;;;;;;;;;;5119829;28;20357;-83
2021/03/05 06:05:12;;;;;;;31.52;17.90;;;;;;;;;;5118424;28;20425;-83
2021/03/05 06:07:38;;;;;;;30.98;17.98;;;;;;;;;;5119756;28;20432;-83
2021/03/05 06:10:05;;;;;;;34.22;16.50;;;;;;;;;;5119905;28;20031;-83
2021/03/05 06:12:31;;;;;;;33.22;18.63;;;;;;;;;;5119737;28;20465;-83
2021/03/05 06:14:57;;;;;;;46.80;24.45;;;;;;;;;;5119638;28;20107;-83
2021/03/05 06:17:39;;;;;;;74.95;29.48;;;;;;;;;;5119590;28;20103;-82
2021/03/05 06:20:06;;;;;;;100.13;33.60;;;;;;;;;;5119712;28;20275;-83
2021/03/05 06:22:32;;;;;;;133.77;37.67;;;;;;;;;;5119590;28;20069;-83
2021/03/05 06:24:58;;;;;;;140.50;46.25;;;;;;;;;;5119161;28;20068;-83
2021/03/05 06:27:28;;;;;;;334.13;97.90;;;;;;;;;;5119302;28;20032;-82
2021/03/05 06:29:54;;;;;;;293.33;96.32;;;;;;;;;;5119603;28;20028;-82
2021/03/05 06:32:20;;;;;;;242.30;82.38;;;;;;;;;;5119134;28;20023;-82
2021/03/05 06:34:50;;;;;;;217.10;63.97;;;;;;;;;;5117829;28;20162;-82
2021/03/05 06:37:20;;;;;;;178.93;58.30;;;;;;;;;;5117037;28;20028;-77
2021/03/05 06:39:56;;;;;;;151.40;51.15;;;;;;;;;;5119048;28;20038;-79
2021/03/05 06:42:22;;;;;;;131.93;44.13;;;;;;;;;;5119067;28;20097;-76
2021/03/05 06:44:48;;;;;;;129.77;43.03;;;;;;;;;;5117970;28;20035;-77
2021/03/05 06:47:18;;;;;;;122.18;39.50;;;;;;;;;;5119173;28;20319;-76
2021/03/05 06:49:45;;;;;;;126.30;37.45;;;;;;;;;;5119092;28;20043;-77
2021/03/05 06:52:12;;;;;;;116.03;36.25;;;;;;;;;;5118964;28;20023;-76
2021/03/05 06:54:39;;;;;;;68.32;27.80;;;;;;;;;;5117774;28;20019;-76
2021/03/05 06:57:05;;;;;;;61.45;27.27;;;;;;;;;;5118717;28;20024;-77
2021/03/05 06:59:36;;;;;;;53.72;25.77;;;;;;;;;;5118534;28;20337;-77
2021/03/05 07:02:03;;;;;;;56.92;27.88;;;;;;;;;;5118827;28;20028;-77
2021/03/05 07:04:30;;;;;;;79.05;36.50;;;;;;;;;;5117581;28;20287;-77
2021/03/05 07:07:04;;;;;;;73.25;35.65;;;;;;;;;;5117645;28;20443;-77
2021/03/05 07:09:34;;;;;;;87.85;43.45;;;;;;;;;;5117452;28;20043;-77
2021/03/05 07:12:01;;;;;;;85.80;42.00;;;;;;;;;;5118085;28;20024;-76
2021/03/05 07:14:28;;;;;;;103.63;47.08;;;;;;;;;;5118353;28;20016;-77
2021/03/05 07:16:55;;;;;;;92.90;45.17;;;;;;;;;;5118673;28;20023;-77
2021/03/05 07:19:22;;;;;;;72.15;37.42;;;;;;;;;;5118313;28;20019;-77
2021/03/05 07:21:49;;;;;;;81.63;37.38;;;;;;;;;;5118340;28;20326;-77
2021/03/05 07:24:16;;;;;;;84.03;39.08;;;;;;;;;;5118281;28;20020;-77
2021/03/05 07:26:43;;;;;;;100.40;36.20;;;;;;;;;;5117201;28;20409;-76
2021/03/05 07:29:13;;;;;;;65.65;30.15;;;;;;;;;;5118252;28;20031;-77
2021/03/05 07:31:40;;;;;;;79.47;34.63;;;;;;;;;;5118136;28;20032;-76
2021/03/05 07:34:09;;;;;;;72.78;33.10;;;;;;;;;;5118236;28;20038;-77
2021/03/05 07:36:36;;;;;;;84.95;30.83;;;;;;;;;;5118105;28;20095;-76
2021/03/05 07:39:04;;;;;;;53.45;26.48;;;;;;;;;;5117957;28;20023;-76
2021/03/05 07:41:30;;;;;;;54.38;25.92;;;;;;;;;;5118011;28;20024;-76
2021/03/05 07:43:57;;;;;;;54.67;26.83;;;;;;;;;;5117824;28;20034;-76
2021/03/05 07:46:23;;;;;;;54.33;25.08;;;;;;;;;;5118475;28;20048;-76
2021/03/05 07:48:50;;;;;;;48.55;22.13;;;;;;;;;;5116472;28;20374;-76
2021/03/05 07:51:18;;;;;;;37.60;18.20;;;;;;;;;;5117179;28;20054;-76
2021/03/05 07:53:53;;;;;;;28.88;15.23;;;;;;;;;;5117873;28;20419;-77
2021/03/05 07:56:38;;;;;;;27.92;14.68;;;;;;;;;;5117758;28;20057;-76
2021/03/05 07:59:04;;;;;;;39.85;18.15;;;;;;;;;;5117571;28;20031;-77
2021/03/05 08:01:50;;;;;;;30.13;15.27;;;;;;;;;;5103465;28;20028;-76
2021/03/05 08:04:17;;;;;;;23.88;13.88;;;;;;;;;;4999169;28;20125;-79
2021/03/05 08:06:44;;;;;;;26.15;13.85;;;;;;;;;;4998919;28;20120;-79
2021/03/05 08:09:16;;;;;;;28.13;14.18;;;;;;;;;;4998997;28;20054;-79
2021/03/05 08:11:42;;;;;;;29.35;15.25;;;;;;;;;;5015415;28;20034;-78
2021/03/05 08:14:20;;;;;;;46.10;20.90;;;;;;;;;;4998676;28;20061;-79
2021/03/05 08:16:49;;;;;;;41.75;20.48;;;;;;;;;;5015657;28;20404;-78
2021/03/05 08:19:16;;;;;;;25.50;15.10;;;;;;;;;;5015309;28;20377;-79
2021/03/05 08:21:51;;;;;;;32.65;15.93;;;;;;;;;;5015346;28;20444;-78
2021/03/05 08:24:20;;;;;;;31.65;16.40;;;;;;;;;;5015253;28;20112;-79
2021/03/05 08:26:58;;;;;;;25.90;13.65;;;;;;;;;;4998864;28;20033;-78
2021/03/05 08:29:43;;;;;;;26.30;13.48;;;;;;;;;;5015170;28;20042;-78
2021/03/05 08:32:28;;;;;;;22.73;12.55;;;;;;;;;;4998769;28;20052;-79
2021/03/05 08:34:54;;;;;;;20.50;11.73;;;;;;;;;;5015170;28;20113;-78
2021/03/05 08:37:29;;;;;;;28.95;13.35;;;;;;;;;;5015289;28;20308;-78
2021/03/05 08:40:10;;;;;;;41.40;16.83;;;;;;;;;;5015127;28;20100;-78
2021/03/05 08:42:40;;;;;;;51.27;18.70;;;;;;;;;;5096839;28;20028;-78
2021/03/05 08:45:28;;;;;;;40.30;15.80;;;;;;;;;;5096847;28;20032;-78
2021/03/05 08:47:58;;;;;;;26.73;10.20;;;;;;;;;;5097013;28;20491;-79
2021/03/05 08:50:32;;;;;;;36.30;9.48;;;;;;;;;;5096888;28;20060;-78
2021/03/05 08:53:02;;;;;;;41.75;10.25;;;;;;;;;;5095616;28;20055;-78
2021/03/05 08:55:31;;;;;;;43.10;19.65;;;;;;;;;;5096338;28;20020;-78
2021/03/05 08:57:58;;;;;;;22.00;8.82;;;;;;;;;;5096786;28;20020;-78
2021/03/05 09:00:28;;;;;;;22.02;9.68;;;;;;;;;;5095190;28;20113;-78
2021/03/05 09:03:03;;;;;;;29.20;11.95;;;;;;;;;;5100623;28;20036;-78
2021/03/05 09:05:33;;;;;;;18.27;9.10;;;;;;;;;;5100470;28;20028;-78
2021/03/05 09:08:00;;;;;;;23.33;10.30;;;;;;;;;;5100751;28;20028;-78
2021/03/05 09:10:43;;;;;;;29.02;9.57;;;;;;;;;;5100344;28;20413;-78
2021/03/05 09:13:10;;;;;;;26.88;12.20;;;;;;;;;;5100633;28;20475;-78
2021/03/05 09:15:42;;;;;;;42.50;18.40;;;;;;;;;;5100308;28;20024;-78
2021/03/05 09:18:09;;;;;;;28.10;13.32;;;;;;;;;;5100539;28;20097;-78
2021/03/05 09:20:36;;;;;;;38.47;15.15;;;;;;;;;;5099178;28;20031;-78
2021/03/05 09:23:15;;;;;;;25.63;12.20;;;;;;;;;;5100114;28;20367;-78
2021/03/05 09:25:48;;;;;;;24.35;12.52;;;;;;;;;;5100189;28;20406;-78
2021/03/05 09:28:14;;;;;;;47.13;12.07;;;;;;;;;;5099002;28;20409;-78
2021/03/05 09:30:40;;;;;;;28.42;14.27;;;;;;;;;;5099002;28;20040;-78
2021/03/05 09:33:07;;;;;;;126.70;17.67;;;;;;;;;;5099919;28;20020;-78
2021/03/05 09:35:35;;;;;;;42.55;13.25;;;;;;;;;;5100118;28;20020;-78
2021/03/05 09:38:01;;;;;;;39.30;16.00;;;;;;;;;;5100084;28;20099;-78
2021/03/05 09:40:30;;;;;;;29.08;13.18;;;;;;;;;;5100100;28;20044;-78
2021/03/05 09:42:57;;;;;;;30.95;12.75;;;;;;;;;;5099789;28;20024;-77
2021/03/05 09:45:35;;;;;;;30.40;14.18;;;;;;;;;;5098647;28;20031;-78
2021/03/05 09:48:02;;;;;;;23.02;11.88;;;;;;;;;;5099633;28;20455;-78
2021/03/05 09:50:28;;;;;;;35.13;12.48;;;;;;;;;;5099756;28;20032;-78
2021/03/05 09:52:54;;;;;;;23.65;13.68;;;;;;;;;;5099193;28;20028;-78
2021/03/05 09:55:38;;;;;;;36.72;12.82;;;;;;;;;;5099612;28;20425;-78
2021/03/05 09:58:11;;;;;;;27.92;12.95;;;;;;;;;;5098363;28;20419;-77
2021/03/05 10:00:37;;;;;;;25.42;13.75;;;;;;;;;;5099331;28;20048;-78
2021/03/05 10:03:14;;;;;;;23.35;12.75;;;;;;;;;;5099418;28;20054;-78
2021/03/05 10:05:40;;;;;;;29.30;14.82;;;;;;;;;;5098612;28;20364;-77
2021/03/05 10:08:14;;;;;;;29.88;14.00;;;;;;;;;;5099416;28;20334;-78
2021/03/05 10:10:56;;;;;;;27.83;14.13;;;;;;;;;;5099474;28;20035;-78
2021/03/05 10:13:37;;;;;;;24.95;13.30;;;;;;;;;;5098594;28;20028;-77
2021/03/05 10:16:10;;;;;;;31.30;14.13;;;;;;;;;;5098150;28;20489;-77
2021/03/05 10:18:37;;;;;;;30.73;14.18;;;;;;;;;;5099227;28;20029;-78
2021/03/05 10:21:03;;;;;;;28.88;14.85;;;;;;;;;;5099071;28;20048;-78
2021/03/05 10:23:29;;;;;;;25.75;13.90;;;;;;;;;;5099041;28;20035;-78
2021/03/05 10:25:55;;;;;;;29.15;14.90;;;;;;;;;;5098913;28;20444;-78
2021/03/05 10:28:25;;;;;;;23.70;13.40;;;;;;;;;;5097780;28;20091;-78
2021/03/05 10:30:51;;;;;;;28.98;16.05;;;;;;;;;;5099133;28;20039;-78
2021/03/05 10:33:36;;;;;;;32.28;15.90;;;;;;;;;;5098797;28;20020;-77
2021/03/05 10:36:03;;;;;;;33.55;16.23;;;;;;;;;;5099036;28;20020;-78
2021/03/05 10:38:29;;;;;;;33.55;15.45;;;;;;;;;;5098967;28;20016;-78
2021/03/05 10:40:55;;;;;;;27.65;14.93;;;;;;;;;;5098807;28;20150;-77
2021/03/05 10:43:21;;;;;;;36.42;16.73;;;;;;;;;;5098391;28;20283;-78
2021/03/05 10:45:48;;;;;;;30.60;15.45;;;;;;;;;;5097502;28;20028;-78
2021/03/05 10:48:14;;;;;;;24.20;13.82;;;;;;;;;;5098603;28;20362;-78
2021/03/05 10:50:40;;;;;;;29.83;16.60;;;;;;;;;;5098774;28;20047;-77
2021/03/05 10:53:06;;;;;;;28.55;13.45;;;;;;;;;;5098211;28;20040;-78
2021/03/05 10:55:32;;;;;;;26.17;12.70;;;;;;;;;;5098336;28;20024;-78
2021/03/05 10:57:59;;;;;;;32.08;13.10;;;;;;;;;;5112041;28;20023;-77
2021/03/05 11:00:25;;;;;;;31.20;15.32;;;;;;;;;;5118632;28;20127;-78
2021/03/05 11:02:51;;;;;;;25.25;14.30;;;;;;;;;;5118841;28;20024;-78
2021/03/05 11:05:17;;;;;;;28.33;14.57;;;;;;;;;;5118335;28;20418;-78
2021/03/05 11:07:43;;;;;;;31.98;15.50;;;;;;;;;;5118401;28;20058;-77
2021/03/05 11:10:10;;;;;;;26.05;14.65;;;;;;;;;;5118667;28;20032;-77
2021/03/05 11:12:36;;;;;;;33.75;13.93;;;;;;;;;;5118308;28;20031;-77
2021/03/05 11:15:03;;;;;;;22.90;14.43;;;;;;;;;;5118356;28;20090;-77
2021/03/05 11:17:29;;;;;;;24.02;14.38;;;;;;;;;;5118084;28;20118;-77
2021/03/05 11:19:56;;;;;;;28.00;14.27;;;;;;;;;;5117877;28;20102;-77
2021/03/05 11:22:22;;;;;;;27.52;15.68;;;;;;;;;;5118527;28;20051;-77
2021/03/05 11:24:48;;;;;;;28.30;15.52;;;;;;;;;;5118340;28;20016;-77
2021/03/05 11:27:14;;;;;;;29.65;16.55;;;;;;;;;;5118237;28;20026;-77
2021/03/05 11:29:40;;;;;;;23.88;15.00;;;;;;;;;;5118090;28;20038;-77
2021/03/05 11:32:07;;;;;;;23.67;14.73;;;;;;;;;;5118042;28;20019;-77
2021/03/05 11:34:33;;;;;;;25.45;15.77;;;;;;;;;;5118038;28;20023;-77
2021/03/05 11:36:59;;;;;;;28.02;16.27;;;;;;;;;;5117969;28;20393;-77
2021/03/05 11:39:25;;;;;;;38.55;20.10;;;;;;;;;;5118219;28;20023;-77
2021/03/05 11:41:54;;;;;;;32.67;21.52;;;;;;;;;;5117980;28;20020;-77
2021/03/05 11:44:20;;;;;;;34.05;20.65;;;;;;;;;;5117396;28;20020;-77
2021/03/05 11:46:46;;;;;;;33.47;20.63;;;;;;;;;;5116740;28;20046;-77
2021/03/05 11:49:13;;;;;;;34.50;19.58;;;;;;;;;;5116422;28;20417;-77
2021/03/05 11:51:39;;;;;;;38.05;20.95;;;;;;;;;;5117679;28;20035;-77
2021/03/05 11:54:06;;;;;;;35.63;21.40;;;;;;;;;;5117844;28;20031;-77
2021/03/05 11:56:32;;;;;;;30.52;17.80;;;;;;;;;;5117838;28;20068;-77
2021/03/05 11:58:58;;;;;;;32.65;18.00;;;;;;;;;;5117483;28;20019;-77
2021/03/05 12:01:24;;;;;;;35.70;20.67;;;;;;;;;;5118165;28;20035;-88
2021/03/05 12:03:51;;;;;;;36.88;20.40;;;;;;;;;;5117290;28;20433;-88
2021/03/05 12:06:17;;;;;;;36.03;19.90;;;;;;;;;;5118378;28;20019;-89
2021/03/05 12:08:44;;;;;;;38.25;22.77;;;;;;;;;;5118481;28;20081;-88
2021/03/05 12:11:10;;;;;;;39.25;24.02;;;;;;;;;;5118348;28;20098;-89
2021/03/05 12:13:36;;;;;;;30.40;18.73;;;;;;;;;;5118441;28;20023;-88
2021/03/05 12:16:02;;;;;;;29.30;18.70;;;;;;;;;;5118444;28;20027;-89
2021/03/05 12:18:28;;;;;;;34.97;20.00;;;;;;;;;;5118367;28;20099;-88
2021/03/05 12:20:54;;;;;;;32.90;19.65;;;;;;;;;;5118245;28;20350;-88
2021/03/05 12:23:20;;;;;;;35.35;19.38;;;;;;;;;;5117979;28;20016;-89
2021/03/05 12:25:46;;;;;;;36.00;19.83;;;;;;;;;;5118290;28;20146;-89
2021/03/05 12:28:12;;;;;;;37.85;19.73;;;;;;;;;;5117571;28;20073;-87
2021/03/05 12:30:38;;;;;;;31.10;19.00;;;;;;;;;;5117887;28;20024;-88
2021/03/05 12:33:04;;;;;;;34.28;20.98;;;;;;;;;;5117865;28;20056;-89
2021/03/05 12:35:30;;;;;;;40.25;22.02;;;;;;;;;;5118440;28;20020;-88
2021/03/05 12:37:56;;;;;;;62.28;32.55;;;;;;;;;;5121947;28;20121;-89
2021/03/05 12:40:22;;;;;;;63.22;33.63;;;;;;;;;;5122407;28;20015;-88
2021/03/05 12:42:48;;;;;;;58.95;33.05;;;;;;;;;;5122043;28;20058;-88
2021/03/05 12:45:15;;;;;;;59.92;33.05;;;;;;;;;;5120994;28;20031;-89
2021/03/05 12:47:41;;;;;;;39.83;23.08;;;;;;;;;;5122199;28;20057;-89
2021/03/05 12:50:08;;;;;;;77.35;44.95;;;;;;;;;;5121802;28;20028;-88
2021/03/05 12:52:34;;;;;;;54.17;30.70;;;;;;;;;;5121858;28;20036;-88
2021/03/05 12:55:00;;;;;;;49.42;25.73;;;;;;;;;;5120935;28;20047;-88
2021/03/05 12:57:26;;;;;;;57.78;31.25;;;;;;;;;;5121710;28;20110;-89
2021/03/05 12:59:52;;;;;;;66.93;34.72;;;;;;;;;;5120450;28;20039;-88
2021/03/05 13:02:18;;;;;;;41.60;24.38;;;;;;;;;;5120622;28;20038;-88
2021/03/05 13:04:45;;;;;;;46.45;26.80;;;;;;;;;;5120683;28;20063;-90
2021/03/05 13:07:11;;;;;;;37.50;20.27;;;;;;;;;;5121479;28;20413;-88
2021/03/05 13:09:38;;;;;;;35.35;20.73;;;;;;;;;;5121763;28;20028;-88
2021/03/05 13:12:04;;;;;;;46.95;21.27;;;;;;;;;;5121539;28;20051;-88
2021/03/05 13:14:30;;;;;;;35.33;20.55;;;;;;;;;;5120508;28;20076;-88
2021/03/05 13:16:57;;;;;;;59.63;22.85;;;;;;;;;;5121549;28;20020;-88
2021/03/05 13:19:23;;;;;;;49.25;21.05;;;;;;;;;;5120175;28;20325;-88
2021/03/05 13:21:49;;;;;;;32.03;20.45;;;;;;;;;;5121173;28;20084;-88
2021/03/05 13:24:15;;;;;;;35.88;20.60;;;;;;;;;;5121345;28;20113;-86
2021/03/05 13:26:43;;;;;;;30.85;21.40;;;;;;;;;;5121110;28;20058;-87
2021/03/05 13:29:09;;;;;;;38.53;22.65;;;;;;;;;;5120168;28;20022;-88
2021/03/05 13:31:35;;;;;;;35.03;21.75;;;;;;;;;;5120298;28;20051;-88
2021/03/05 13:34:02;;;;;;;33.38;22.45;;;;;;;;;;5120986;28;20020;-88
2021/03/05 13:36:28;;;;;;;39.22;23.38;;;;;;;;;;5120492;28;20118;-87
2021/03/05 13:38:54;;;;;;;37.30;19.98;;;;;;;;;;5121263;28;20398;-88
2021/03/05 13:41:20;;;;;;;42.28;23.10;;;;;;;;;;5121055;28;20099;-88
2021/03/05 13:43:46;;;;;;;41.83;22.23;;;;;;;;;;5121117;28;20027;-88
2021/03/05 13:46:12;;;;;;;42.10;23.38;;;;;;;;;;5120960;28;20011;-87
2021/03/05 13:48:42;;;;;;;52.55;24.05;;;;;;;;;;5118521;28;20028;-88
2021/03/05 13:51:08;;;;;;;51.95;27.15;;;;;;;;;;5120536;28;20023;-88
2021/03/05 13:53:34;;;;;;;42.65;22.67;;;;;;;;;;5120637;28;20023;-88
2021/03/05 13:56:00;;;;;;;39.53;22.50;;;;;;;;;;5119472;28;20043;-89
2021/03/05 13:58:26;;;;;;;42.80;22.70;;;;;;;;;;5120477;28;20016;-88
2021/03/05 14:00:52;;;;;;;43.70;22.92;;;;;;;;;;5119563;28;20386;-89
2021/03/05 14:03:18;;;;;;;39.63;21.77;;;;;;;;;;5120345;28;20062;-88
2021/03/05 14:05:44;;;;;;;41.40;22.52;;;;;;;;;;5119583;28;20027;-87
2021/03/05 14:08:10;;;;;;;40.75;24.30;;;;;;;;;;5120594;28;20421;-88
2021/03/05 14:10:37;;;;;;;42.92;23.13;;;;;;;;;;5119202;28;20020;-88
2021/03/05 14:13:03;;;;;;;38.38;22.05;;;;;;;;;;5120316;28;20422;-88
2021/03/05 14:15:29;;;;;;;47.40;23.52;;;;;;;;;;5120367;28;20050;-87
2021/03/05 14:17:55;;;;;;;36.65;22.35;;;;;;;;;;5119000;28;20402;-87
2021/03/05 14:20:21;;;;;;;39.95;23.77;;;;;;;;;;5120227;28;20016;-88